createdAt,value
2023-01-13T10:22:09.645Z,19.31
2023-01-13T10:23:10.456Z,19.31
2023-01-13T10:24:10.407Z,19.31
2023-01-13T10:25:10.325Z,19.33
2023-01-13T10:26:10.356Z,19.34
2023-01-13T10:27:10.208Z,19.36
2023-01-13T10:28:10.158Z,19.37
2023-01-13T10:29:10.044Z,19.39
2023-01-13T10:30:09.978Z,19.40
2023-01-13T10:31:10.000Z,19.40
2023-01-13T10:32:09.861Z,19.44
2023-01-13T10:33:09.782Z,19.45
2023-01-13T10:34:09.725Z,19.47
2023-01-13T10:35:09.648Z,19.48
2023-01-13T10:36:15.563Z,19.48
2023-01-13T10:37:09.484Z,19.51
2023-01-13T10:38:09.416Z,19.52
2023-01-13T10:39:09.361Z,19.54
2023-01-13T10:40:09.301Z,19.56
2023-01-13T10:41:09.223Z,19.59
2023-01-13T10:42:09.149Z,19.62
2023-01-13T10:43:09.063Z,19.63
2023-01-13T10:44:09.804Z,19.64
2023-01-13T10:45:08.898Z,19.67
2023-01-13T10:46:08.852Z,19.69
2023-01-13T10:47:08.736Z,19.70
2023-01-13T10:48:08.677Z,19.73
2023-01-13T10:49:08.611Z,19.74
2023-01-13T10:50:09.646Z,19.76
2023-01-13T10:51:08.469Z,19.77
2023-01-13T10:52:08.423Z,19.79
2023-01-13T10:53:08.338Z,19.81
2023-01-13T10:54:08.269Z,19.82
2023-01-13T10:55:08.179Z,19.84
2023-01-13T10:56:08.093Z,19.85
2023-01-13T10:57:08.013Z,19.86
2023-01-13T10:58:07.959Z,19.88
2023-01-13T10:59:07.911Z,19.89
2023-01-13T11:00:07.833Z,19.89
2023-01-13T11:01:07.755Z,19.92
2023-01-13T11:02:23.762Z,19.92
2023-01-13T11:03:07.579Z,19.94
2023-01-13T11:04:07.503Z,19.95
2023-01-13T11:05:07.488Z,19.96
2023-01-13T11:06:07.389Z,19.95
2023-01-13T11:07:07.295Z,19.99
2023-01-13T11:08:07.229Z,19.99
2023-01-13T11:09:07.164Z,20.02
2023-01-13T11:10:07.092Z,20.03
2023-01-13T11:11:07.023Z,20.03
2023-01-13T11:12:06.986Z,20.04
2023-01-13T11:13:06.914Z,20.04
2023-01-13T11:14:09.160Z,20.04
2023-01-13T11:15:06.758Z,20.07
2023-01-13T11:16:06.742Z,20.07
2023-01-13T11:17:06.619Z,20.09
2023-01-13T11:18:06.564Z,20.10
2023-01-13T11:19:06.484Z,20.11
2023-01-13T11:20:06.427Z,20.11
2023-01-13T11:21:06.365Z,20.11
2023-01-13T11:22:06.277Z,20.11
2023-01-13T11:23:06.203Z,20.11
2023-01-13T11:24:06.123Z,20.13
2023-01-13T11:25:06.060Z,20.13
2023-01-13T11:26:05.979Z,20.16
2023-01-13T11:27:05.916Z,20.14
2023-01-13T11:28:05.846Z,20.16
2023-01-13T11:29:05.762Z,20.16
2023-01-13T11:30:05.703Z,20.18
2023-01-13T11:31:05.716Z,20.18
2023-01-13T11:32:05.549Z,20.16
2023-01-13T11:33:05.482Z,20.19
2023-01-13T11:34:05.395Z,20.19
2023-01-13T11:35:05.331Z,20.19
2023-01-13T11:36:05.256Z,20.19
2023-01-13T11:37:05.167Z,20.19
2023-01-13T11:38:05.096Z,20.22
2023-01-13T18:41:37.498Z,20.28
2023-01-13T18:42:38.434Z,20.28
2023-01-13T18:43:38.385Z,20.28
2023-01-13T18:44:38.340Z,20.29
2023-01-13T18:45:38.317Z,20.31
2023-01-13T18:46:38.275Z,20.32
2023-01-13T18:47:38.242Z,20.36
2023-01-13T18:48:38.210Z,20.36
2023-01-13T18:49:38.161Z,20.37
2023-01-13T18:50:38.120Z,20.39
2023-01-13T18:51:38.083Z,20.40
2023-01-13T18:52:38.038Z,20.41
2023-01-13T18:53:38.009Z,20.43
2023-01-13T18:54:37.950Z,20.43
2023-01-13T18:55:37.910Z,20.43
2023-01-13T18:56:37.870Z,20.43
2023-01-13T18:57:37.833Z,20.55
2023-01-13T18:58:37.813Z,20.93
2023-01-13T18:59:37.762Z,21.32
2023-01-13T19:00:37.693Z,22.10
2023-01-13T19:01:37.771Z,23.13
2023-01-13T19:02:37.622Z,23.32
2023-01-13T19:03:37.570Z,23.39
2023-01-13T19:04:37.478Z,23.36
2023-01-13T19:05:37.431Z,23.25
2023-01-13T19:06:37.380Z,23.12
2023-01-13T19:07:37.331Z,22.98
2023-01-13T19:08:37.282Z,22.81
2023-01-13T19:09:37.271Z,22.65
